Time;durP1;ratioP1;P1;durP2;ratioP2;P2;SDS_P1;SDS_P2;PMS_P1;PMS_P2;Temp;Humidity;BMP_temperature;BMP_pressure;BME280_temperature;BME280_humidity;BME280_pressure;Samples;Min_cycle;Max_cycle;Signal;HPM_P1;HPM_P2
2022/11/02 00:00:29;;;;;;;2.63;0.53;;;11.20;1.00;;;;;;5042730;28;20453;-81
2022/11/02 00:02:57;;;;;;;4.30;0.70;;;11.30;1.00;;;;;;5040094;28;20514;-81
2022/11/02 00:05:23;;;;;;;3.80;0.47;;;11.20;1.00;;;;;;5040910;28;20498;-86
2022/11/02 00:07:50;;;;;;;7.83;0.20;;;11.10;1.00;;;;;;5051788;28;20433;-82
2022/11/02 00:10:16;;;;;;;4.23;0.40;;;11.00;1.00;;;;;;5053005;28;20447;-89
2022/11/02 00:12:45;;;;;;;2.93;0.60;;;11.00;1.00;;;;;;5053128;28;20417;-81
2022/11/02 00:15:11;;;;;;;2.53;0.97;;;10.90;1.00;;;;;;5052762;28;20170;-81
2022/11/02 00:17:38;;;;;;;4.43;0.43;;;11.00;1.00;;;;;;5053181;28;20412;-85
2022/11/02 00:20:08;;;;;;;4.73;0.73;;;11.10;1.00;;;;;;5052891;28;20450;-81
2022/11/02 00:22:33;;;;;;;3.70;0.50;;;11.00;1.00;;;;;;5043390;28;20425;-81
2022/11/02 00:25:02;;;;;;;2.67;0.30;;;11.00;1.00;;;;;;5044525;28;20411;-81
2022/11/02 00:27:28;;;;;;;2.00;0.60;;;11.00;1.00;;;;;;5040433;28;20164;-84
2022/11/02 00:29:54;;;;;;;3.97;0.40;;;11.00;1.00;;;;;;5043453;28;20423;-87
2022/11/02 00:32:19;;;;;;;3.10;0.60;;;11.00;1.00;;;;;;5041079;28;20758;-86
2022/11/02 00:34:45;;;;;;;5.43;0.50;;;10.90;8.30;;;;;;5037771;28;20181;-91
2022/11/02 00:37:11;;;;;;;4.07;0.40;;;10.90;12.90;;;;;;5040357;28;20188;-87
2022/11/02 00:39:37;;;;;;;3.07;0.40;;;11.00;1.00;;;;;;5024902;28;20183;-82
2022/11/02 00:42:02;;;;;;;4.07;0.63;;;10.90;4.20;;;;;;5041859;28;20428;-83
2022/11/02 00:44:28;;;;;;;3.57;0.77;;;10.80;32.80;;;;;;5040352;28;20628;-81
2022/11/02 00:46:54;;;;;;;2.43;0.30;;;11.10;1.00;;;;;;5041812;28;20179;-82
2022/11/02 00:49:19;;;;;;;3.90;0.40;;;10.90;10.70;;;;;;5044278;28;20189;-81
2022/11/02 00:51:46;;;;;;;3.83;0.30;;;10.90;23.70;;;;;;5037443;28;20518;-88
2022/11/02 00:54:11;;;;;;;2.40;0.40;;;10.80;49.80;;;;;;5028322;28;20194;-89
2022/11/02 00:56:46;;;;;;;1.37;0.40;;;10.80;55.80;;;;;;5038770;28;20433;-83
2022/11/02 00:59:14;;;;;;;3.20;0.47;;;10.80;98.10;;;;;;5035500;28;20178;-82
2022/11/02 01:01:46;;;;;;;4.57;0.70;;;10.80;99.90;;;;;;5036319;28;20468;-81
2022/11/02 01:04:13;;;;;;;2.37;0.20;;;10.80;99.70;;;;;;5036532;28;20440;-90
2022/11/02 01:06:38;;;;;;;2.97;0.40;;;10.70;87.80;;;;;;5036386;28;20428;-93
2022/11/02 01:09:04;;;;;;;4.80;0.87;;;10.80;71.60;;;;;;5036176;28;20408;-85
2022/11/02 01:11:29;;;;;;;2.57;1.27;;;10.80;38.80;;;;;;5035967;28;20263;-85
2022/11/02 01:13:54;;;;;;;5.00;0.40;;;10.70;63.00;;;;;;5035963;28;20217;-82
2022/11/02 01:16:20;;;;;;;8.47;0.37;;;10.80;39.00;;;;;;5035762;28;20508;-85
2022/11/02 01:18:46;;;;;;;2.23;0.63;;;10.80;26.40;;;;;;5035800;28;20226;-86
2022/11/02 01:21:11;;;;;;;2.83;0.37;;;10.90;1.00;;;;;;5035950;28;20284;-85
2022/11/02 01:23:38;;;;;;;1.77;0.20;;;10.90;8.30;;;;;;5035862;28;20202;-85
2022/11/02 01:26:05;;;;;;;1.90;0.53;;;10.90;1.00;;;;;;5035774;28;20198;-81
2022/11/02 01:28:31;;;;;;;2.60;0.37;;;10.90;9.30;;;;;;5036755;28;20413;-82
2022/11/02 01:30:57;;;;;;;2.83;0.40;;;10.90;9.30;;;;;;5043966;28;20418;-83
2022/11/02 01:33:24;;;;;;;3.80;0.47;;;10.90;6.80;;;;;;5045304;28;20173;-81
2022/11/02 01:35:53;;;;;;;4.30;0.67;;;11.10;1.00;;;;;;5044949;28;20414;-82
2022/11/02 01:38:19;;;;;;;4.63;0.30;;;11.00;1.00;;;;;;5044992;28;20403;-83
2022/11/02 01:40:47;;;;;;;0.93;0.30;;;11.00;1.00;;;;;;5043163;28;20470;-83
2022/11/02 01:43:23;;;;;;;3.20;0.50;;;11.00;1.00;;;;;;5040990;28;20562;-84
2022/11/02 01:46:14;;;;;;;2.93;0.30;;;11.00;1.00;;;;;;5043132;28;20454;-86
2022/11/02 01:48:47;;;;;;;2.47;0.57;;;11.00;1.00;;;;;;5042416;28;20404;-84
2022/11/02 01:51:27;;;;;;;5.03;0.47;;;11.10;1.00;;;;;;5040656;28;20984;-82
2022/11/02 01:53:56;;;;;;;1.93;0.40;;;11.10;1.00;;;;;;5040530;28;20403;-81
2022/11/02 01:56:26;;;;;;;6.10;0.50;;;11.00;1.00;;;;;;5044454;28;20742;-83
2022/11/02 01:58:59;;;;;;;4.97;0.70;;;11.00;1.00;;;;;;5022503;28;20416;-83
2022/11/02 02:01:25;;;;;;;1.90;0.20;;;11.00;1.00;;;;;;5042573;28;20799;-81
2022/11/02 02:03:52;;;;;;;3.77;2.60;;;10.90;46.00;;;;;;5044107;28;20400;-81
2022/11/02 02:06:18;;;;;;;3.60;0.37;;;10.80;51.90;;;;;;5043514;28;20777;-85
2022/11/02 02:08:49;;;;;;;4.53;0.97;;;10.70;47.20;;;;;;5042191;28;20420;-85
2022/11/02 02:11:37;;;;;;;7.80;0.73;;;10.70;50.30;;;;;;5040801;28;20177;-82
2022/11/02 02:14:10;;;;;;;2.40;0.67;;;10.60;58.00;;;;;;5042940;28;20938;-84
2022/11/02 02:16:45;;;;;;;1.57;0.20;;;10.60;90.80;;;;;;5039606;28;20455;-82
2022/11/02 02:19:26;;;;;;;5.93;0.50;;;10.60;78.00;;;;;;5049729;28;20416;-81
2022/11/02 02:22:27;;;;;;;3.40;0.60;;;10.50;99.90;;;;;;5054336;28;20585;-81
2022/11/02 02:25:14;;;;;;;3.60;0.40;;;10.50;99.90;;;;;;5046707;28;20428;-81
2022/11/02 02:27:56;;;;;;;1.27;0.43;;;10.50;71.40;;;;;;5034120;28;20419;-82
2022/11/02 02:30:22;;;;;;;3.90;0.43;;;10.50;99.90;;;;;;5034280;28;20419;-86
2022/11/02 02:32:56;;;;;;;3.13;0.60;;;10.60;64.20;;;;;;5033752;28;20441;-86
2022/11/02 02:35:53;;;;;;;1.77;0.90;;;10.50;94.50;;;;;;5034069;28;20183;-81
2022/11/02 02:38:39;;;;;;;2.27;0.20;;;10.50;81.80;;;;;;5033873;28;20423;-81
2022/11/02 02:41:36;;;;;;;1.30;0.40;;;10.50;95.80;;;;;;5034149;28;20485;-81
2022/11/02 02:44:03;;;;;;;3.53;0.40;;;10.50;89.00;;;;;;5034733;28;20422;-80
2022/11/02 02:46:36;;;;;;;4.73;0.83;;;10.50;63.90;;;;;;5034272;28;20414;-80
2022/11/02 02:49:04;;;;;;;5.43;0.83;;;10.50;53.10;;;;;;5033992;28;20413;-84
2022/11/02 02:51:32;;;;;;;5.10;0.67;;;10.60;37.00;;;;;;5034057;28;20482;-86
2022/11/02 02:54:02;;;;;;;2.40;0.23;;;10.60;28.20;;;;;;5034241;28;20424;-80
2022/11/02 02:56:33;;;;;;;1.57;0.50;;;10.60;15.70;;;;;;5034250;28;20419;-80
2022/11/02 02:59:05;;;;;;;2.20;0.20;;;10.60;19.80;;;;;;5034206;28;20434;-84
2022/11/02 03:01:32;;;;;;;1.50;0.40;;;10.70;1.00;;;;;;5034236;28;20848;-86
2022/11/02 03:03:57;;;;;;;1.23;0.33;;;10.70;1.00;;;;;;5033807;28;20419;-85
2022/11/02 03:06:30;;;;;;;7.97;0.80;;;10.70;78.10;;;;;;5034242;28;20417;-80
2022/11/02 03:09:07;;;;;;;6.13;0.63;;;10.70;95.20;;;;;;5033951;28;20608;-80
2022/11/02 03:11:33;;;;;;;2.57;0.60;;;10.70;99.90;;;;;;5034023;28;20414;-80
2022/11/02 03:14:09;;;;;;;2.17;0.27;;;10.70;95.60;;;;;;5033845;28;20413;-84
2022/11/02 03:17:00;;;;;;;2.40;0.40;;;10.80;73.20;;;;;;5033748;28;20468;-81
2022/11/02 03:19:54;;;;;;;4.30;0.23;;;10.80;70.10;;;;;;5033528;28;20794;-80
2022/11/02 03:22:41;;;;;;;3.43;0.60;;;10.70;94.10;;;;;;5033251;28;20443;-83
2022/11/02 03:25:26;;;;;;;1.57;0.30;;;10.80;47.40;;;;;;5033692;28;20412;-81
2022/11/02 03:28:23;;;;;;;9.40;0.40;;;10.70;92.50;;;;;;5033672;28;20521;-82
2022/11/02 03:30:58;;;;;;;2.93;0.40;;;10.80;83.90;;;;;;5033002;28;20439;-81
2022/11/02 03:34:01;;;;;;;5.20;0.70;;;10.80;33.80;;;;;;5033152;28;20407;-80
2022/11/02 03:36:34;;;;;;;3.40;0.57;;;10.90;52.20;;;;;;5033491;28;20758;-81
2022/11/02 03:39:09;;;;;;;1.40;0.40;;;10.90;75.10;;;;;;5033454;28;20418;-81
2022/11/02 03:41:36;;;;;;;2.63;0.70;;;10.90;97.60;;;;;;5033404;28;20981;-81
2022/11/02 03:44:18;;;;;;;5.43;0.30;;;10.90;97.90;;;;;;5033432;28;20962;-82
2022/11/02 03:46:44;;;;;;;2.63;0.37;;;10.90;99.90;;;;;;5033426;28;20412;-80
2022/11/02 03:49:14;;;;;;;3.00;0.30;;;10.90;99.90;;;;;;5033062;28;20410;-83
2022/11/02 03:51:42;;;;;;;4.97;0.30;;;10.90;99.90;;;;;;5033444;28;20467;-80
2022/11/02 03:54:18;;;;;;;2.27;0.70;;;10.90;99.90;;;;;;5033187;28;20454;-80
2022/11/02 03:56:48;;;;;;;4.90;0.40;;;10.80;99.90;;;;;;5033338;28;20414;-81
2022/11/02 03:59:13;;;;;;;6.50;1.03;;;10.80;99.90;;;;;;5033091;28;20457;-80
2022/11/02 04:01:46;;;;;;;5.43;0.53;;;10.90;99.90;;;;;;5033115;28;20503;-80
2022/11/02 04:04:11;;;;;;;2.43;0.53;;;10.90;99.90;;;;;;5033028;28;20181;-80
2022/11/02 04:06:41;;;;;;;2.53;0.20;;;11.00;99.90;;;;;;5033168;28;20768;-80
2022/11/02 04:09:07;;;;;;;2.50;0.67;;;11.10;99.90;;;;;;5032853;28;20184;-81
2022/11/02 04:14:38;;;;;;;2.20;0.23;;;11.20;99.90;;;;;;5033150;28;20441;-81
2022/11/02 04:19:53;;;;;;;2.07;0.40;;;11.20;99.90;;;;;;5032919;28;20468;-81
2022/11/02 04:25:14;;;;;;;1.67;0.30;;;11.20;99.90;;;;;;5033045;28;20838;-89
2022/11/02 04:27:41;;;;;;;2.23;0.40;;;11.20;99.90;;;;;;5033204;28;20437;-83
2022/11/02 04:30:07;;;;;;;1.67;0.70;;;11.20;99.90;;;;;;5033030;28;20421;-81
2022/11/02 04:35:28;;;;;;;2.80;0.30;;;11.10;99.90;;;;;;5037263;28;20438;-85
2022/11/02 04:40:38;;;;;;;1.97;0.20;;;11.10;99.90;;;;;;5036950;28;20522;-83
2022/11/02 04:43:03;;;;;;;3.73;0.40;;;11.10;99.90;;;;;;5036577;28;20411;-81
2022/11/02 04:45:29;;;;;;;2.30;0.30;;;11.00;99.90;;;;;;5036634;28;20256;-81
2022/11/02 04:48:06;;;;;;;5.40;0.60;;;10.90;99.90;;;;;;5036287;28;20578;-80
2022/11/02 04:50:32;;;;;;;2.77;0.23;;;10.90;99.90;;;;;;5036276;28;20223;-84
2022/11/02 04:52:59;;;;;;;2.80;0.60;;;10.80;99.90;;;;;;5036449;28;20807;-81
2022/11/02 04:55:26;;;;;;;4.47;0.80;;;10.80;99.90;;;;;;5036324;28;20416;-82
2022/11/02 04:57:51;;;;;;;4.70;0.80;;;10.80;99.90;;;;;;5036279;28;20422;-84
2022/11/02 05:00:18;;;;;;;3.70;0.20;;;10.80;99.90;;;;;;5036216;28;20451;-82
2022/11/02 05:02:48;;;;;;;8.27;0.50;;;10.80;99.90;;;;;;5035931;28;20264;-85
2022/11/02 05:05:15;;;;;;;3.03;0.40;;;10.70;99.90;;;;;;5036220;28;20469;-82
2022/11/02 05:07:41;;;;;;;5.03;0.43;;;10.70;99.90;;;;;;5036090;28;20558;-81
2022/11/02 05:10:08;;;;;;;4.20;0.60;;;10.60;99.90;;;;;;5036205;28;20519;-81
2022/11/02 05:12:33;;;;;;;6.60;0.80;;;10.70;99.90;;;;;;5036125;28;20173;-82
2022/11/02 05:14:58;;;;;;;5.93;0.80;;;10.70;99.90;;;;;;5036019;28;20418;-81
2022/11/02 05:17:24;;;;;;;2.40;0.50;;;10.60;99.90;;;;;;5035604;28;20171;-81
2022/11/02 05:19:49;;;;;;;6.33;0.40;;;10.50;99.90;;;;;;5035891;28;20635;-82
2022/11/02 05:22:15;;;;;;;4.63;0.57;;;10.60;99.90;;;;;;5034647;28;20192;-81
2022/11/02 05:24:40;;;;;;;2.53;0.40;;;10.70;99.90;;;;;;5035868;28;20181;-82
2022/11/02 05:27:12;;;;;;;3.13;0.80;;;10.70;99.90;;;;;;5035917;28;20185;-86
2022/11/02 05:29:40;;;;;;;4.10;0.50;;;10.80;99.90;;;;;;5035783;28;20348;-81
2022/11/02 05:32:05;;;;;;;4.73;0.50;;;10.80;99.90;;;;;;5035562;28;20471;-87
2022/11/02 05:34:31;;;;;;;6.27;0.83;;;10.80;99.90;;;;;;5036114;28;20424;-80
2022/11/02 05:36:56;;;;;;;4.67;0.47;;;10.80;99.90;;;;;;5036050;28;20166;-81
2022/11/02 05:39:24;;;;;;;5.13;0.57;;;10.90;99.90;;;;;;5035874;28;20218;-86
2022/11/02 05:41:50;;;;;;;5.33;0.30;;;11.00;99.90;;;;;;5035735;28;20214;-89
2022/11/02 05:44:15;;;;;;;2.20;0.40;;;11.00;99.90;;;;;;5034876;28;20435;-81
2022/11/02 05:46:44;;;;;;;2.40;0.37;;;10.90;99.90;;;;;;5035412;28;20189;-81
2022/11/02 05:49:10;;;;;;;5.53;0.67;;;11.00;99.90;;;;;;5035691;28;20172;-82
2022/11/02 05:51:35;;;;;;;2.30;0.30;;;11.00;99.90;;;;;;5035591;28;20475;-87
2022/11/02 05:54:01;;;;;;;3.70;0.37;;;10.90;99.90;;;;;;5035455;28;20212;-87
2022/11/02 05:56:26;;;;;;;2.07;0.40;;;10.70;99.90;;;;;;5035488;28;20630;-80
2022/11/02 05:58:53;;;;;;;5.33;0.70;;;10.60;99.90;;;;;;5035529;28;20172;-82
2022/11/02 06:01:19;;;;;;;3.07;0.30;;;10.50;99.90;;;;;;5035257;28;20215;-81
2022/11/02 06:03:45;;;;;;;4.43;0.53;;;10.60;99.90;;;;;;5034817;28;20409;-82
2022/11/02 06:06:11;;;;;;;2.23;1.03;;;10.50;99.90;;;;;;5048231;28;20426;-82
2022/11/02 06:08:37;;;;;;;4.97;0.70;;;10.50;99.90;;;;;;5041482;28;20167;-82
2022/11/02 06:11:13;;;;;;;6.60;0.30;;;10.40;99.90;;;;;;5041217;28;20175;-82
2022/11/02 06:13:40;;;;;;;8.00;0.70;;;10.40;99.90;;;;;;5042762;28;20433;-83
2022/11/02 06:16:08;;;;;;;13.10;0.70;;;10.40;99.90;;;;;;5036125;28;20419;-81
2022/11/02 06:18:34;;;;;;;9.67;1.37;;;10.40;99.90;;;;;;5034842;28;20807;-82
2022/11/02 06:21:00;;;;;;;4.30;0.40;;;10.40;99.90;;;;;;5035033;28;20462;-81
2022/11/02 06:23:26;;;;;;;5.20;0.60;;;10.50;99.90;;;;;;5034837;28;20915;-81
2022/11/02 06:25:52;;;;;;;4.17;0.40;;;10.60;99.90;;;;;;5034765;28;20184;-81
2022/11/02 06:28:18;;;;;;;2.13;0.60;;;10.70;99.90;;;;;;5034477;28;20408;-81
2022/11/02 06:30:48;;;;;;;3.03;0.67;;;10.80;99.90;;;;;;5034205;28;20771;-80
2022/11/02 06:33:13;;;;;;;6.20;0.43;;;11.00;99.90;;;;;;5033891;28;20411;-85
2022/11/02 06:35:39;;;;;;;1.90;0.30;;;11.10;99.90;;;;;;5034397;28;20420;-82
2022/11/02 06:38:04;;;;;;;5.93;1.07;;;11.20;99.90;;;;;;5034460;28;20171;-80
2022/11/02 06:40:30;;;;;;;4.27;0.30;;;11.20;99.90;;;;;;5034338;28;20209;-84
2022/11/02 06:42:57;;;;;;;2.33;0.40;;;11.30;99.90;;;;;;5034419;28;20167;-83
2022/11/02 06:45:26;;;;;;;1.97;0.23;;;11.30;99.90;;;;;;5034448;28;20185;-81
2022/11/02 06:48:01;;;;;;;2.20;0.30;;;11.30;99.90;;;;;;5034102;28;20819;-85
2022/11/02 06:50:26;;;;;;;4.70;0.67;;;11.20;99.90;;;;;;5034051;28;20534;-83
2022/11/02 06:52:52;;;;;;;3.70;0.20;;;11.30;99.90;;;;;;5034594;28;20419;-82
2022/11/02 06:55:18;;;;;;;7.93;1.50;;;11.20;99.90;;;;;;5034616;28;20760;-82
2022/11/02 06:57:44;;;;;;;2.10;0.47;;;11.40;99.90;;;;;;5034439;28;20192;-81
2022/11/02 07:00:12;;;;;;;4.83;0.57;;;11.50;99.90;;;;;;5033869;28;20875;-82
2022/11/02 07:02:38;;;;;;;3.03;0.40;;;11.60;99.90;;;;;;5099846;22;20508;-81
2022/11/02 07:05:05;;;;;;;4.27;0.50;;;11.60;99.90;;;;;;5033925;28;20420;-86
2022/11/02 07:07:36;;;;;;;1.90;0.23;;;11.70;99.90;;;;;;5033626;28;20479;-80
2022/11/02 07:10:03;;;;;;;3.83;0.67;;;11.70;99.90;;;;;;5034070;28;20431;-82
2022/11/02 07:12:33;;;;;;;4.57;0.73;;;11.90;99.90;;;;;;5033759;28;20519;-85
2022/11/02 07:14:59;;;;;;;1.57;0.27;;;11.90;99.90;;;;;;5033813;28;20520;-81
2022/11/02 07:17:24;;;;;;;5.33;0.83;;;11.90;99.90;;;;;;5033468;28;20453;-81
2022/11/02 07:19:49;;;;;;;4.93;0.40;;;12.00;99.90;;;;;;5033692;28;20178;-82
2022/11/02 07:22:15;;;;;;;5.00;0.47;;;12.00;99.90;;;;;;5033699;28;20181;-81
2022/11/02 07:24:40;;;;;;;4.93;0.47;;;12.00;99.90;;;;;;5033630;28;20584;-86
2022/11/02 07:27:06;;;;;;;3.50;0.50;;;12.20;90.90;;;;;;5033623;28;20258;-81
2022/11/02 07:29:31;;;;;;;1.90;0.23;;;12.20;48.80;;;;;;5033416;28;20226;-82
2022/11/02 07:32:00;;;;;;;3.63;0.47;;;12.20;35.00;;;;;;5033141;28;20193;-80
2022/11/02 07:34:25;;;;;;;1.67;0.70;;;12.20;39.80;;;;;;5033695;28;20173;-81
2022/11/02 07:36:50;;;;;;;5.00;0.67;;;12.30;27.80;;;;;;5033850;28;20423;-89
2022/11/02 07:39:19;;;;;;;4.13;0.43;;;12.30;28.10;;;;;;5033859;28;20175;-84
2022/11/02 07:41:44;;;;;;;3.40;0.87;;;12.30;14.50;;;;;;5033561;28;20213;-82
2022/11/02 07:44:10;;;;;;;5.20;0.60;;;12.30;3.90;;;;;;5033498;28;20415;-82
2022/11/02 07:46:35;;;;;;;6.37;0.73;;;12.30;1.00;;;;;;5033381;28;20202;-82
2022/11/02 07:49:01;;;;;;;6.77;0.50;;;12.30;8.30;;;;;;5033680;28;20166;-85
2022/11/02 07:51:26;;;;;;;3.80;0.43;;;12.30;20.40;;;;;;5033518;28;20629;-82
2022/11/02 07:53:52;;;;;;;3.77;0.37;;;12.30;60.50;;;;;;5033639;28;20170;-84
2022/11/02 07:56:17;;;;;;;2.40;0.40;;;12.40;18.20;;;;;;5033723;28;20195;-85
2022/11/02 07:58:43;;;;;;;2.10;0.30;;;12.40;1.00;;;;;;5033135;28;20170;-82
2022/11/02 08:01:08;;;;;;;4.20;0.50;;;12.60;1.00;;;;;;5032899;28;20207;-81
2022/11/02 08:03:34;;;;;;;5.40;0.47;;;12.70;1.00;;;;;;5032993;28;20722;-86
2022/11/02 08:06:01;;;;;;;2.77;0.30;;;12.70;1.00;;;;;;5032950;28;20697;-85
2022/11/02 08:08:27;;;;;;;5.60;0.80;;;13.30;1.00;;;;;;5032901;28;20554;-83
2022/11/02 08:10:52;;;;;;;5.63;0.83;;;14.80;99.90;;;;;;5033311;28;20413;-83
2022/11/02 08:13:22;;;;;;;4.20;0.47;;;15.50;99.90;;;;;;5033231;28;20690;-85
2022/11/02 08:15:49;;;;;;;2.60;0.50;;;15.20;1.00;;;;;;5033158;28;20202;-85
2022/11/02 08:18:26;;;;;;;3.13;0.53;;;14.70;1.00;;;;;;5032761;28;20524;-82
2022/11/02 08:20:53;;;;;;;3.03;0.40;;;14.20;99.90;;;;;;5032882;28;20482;-81
2022/11/02 08:23:19;;;;;;;9.50;0.40;;;13.70;1.00;;;;;;5033073;28;20418;-82
2022/11/02 08:25:47;;;;;;;8.20;0.50;;;13.50;99.90;;;;;;5032953;28;20518;-81
2022/11/02 08:28:18;;;;;;;4.43;0.43;;;13.40;1.00;;;;;;5032826;28;20419;-82
2022/11/02 08:30:43;;;;;;;5.57;0.47;;;13.60;1.00;;;;;;5032810;28;20413;-84
2022/11/02 08:33:15;;;;;;;4.17;0.30;;;13.40;99.90;;;;;;5032671;28;20417;-82
2022/11/02 08:35:42;;;;;;;3.80;1.03;;;13.90;99.90;;;;;;5032964;28;20647;-81
2022/11/02 08:38:08;;;;;;;6.33;0.97;;;14.60;1.00;;;;;;5032694;28;20423;-82
2022/11/02 08:40:34;;;;;;;3.93;0.60;;;14.40;99.60;;;;;;5033280;28;20463;-82
2022/11/02 08:43:08;;;;;;;5.27;0.77;;;15.20;5.50;;;;;;5033448;28;20819;-90
2022/11/02 08:45:35;;;;;;;4.17;0.50;;;14.80;99.90;;;;;;5033301;28;20401;-86
2022/11/02 08:48:01;;;;;;;2.30;0.20;;;14.60;1.00;;;;;;5032847;28;20423;-82
2022/11/02 08:50:27;;;;;;;5.37;0.40;;;14.20;1.00;;;;;;5032777;28;20415;-82
2022/11/02 08:52:52;;;;;;;5.07;0.40;;;14.20;34.20;;;;;;5032764;28;20509;-82
2022/11/02 08:55:18;;;;;;;3.57;0.50;;;14.60;99.90;;;;;;5032566;28;20407;-88
2022/11/02 08:57:51;;;;;;;3.93;0.40;;;14.70;1.00;;;;;;5032382;28;20176;-81
2022/11/02 09:00:19;;;;;;;5.27;0.90;;;15.00;1.00;;;;;;5031507;28;20818;-84
2022/11/02 09:03:01;;;;;;;2.60;0.43;;;15.50;1.00;;;;;;5030913;28;20505;-83
2022/11/02 09:05:35;;;;;;;2.97;0.57;;;17.80;99.90;;;;;;5032864;28;20412;-83
2022/11/02 09:08:03;;;;;;;2.60;0.47;;;16.50;99.90;;;;;;5032813;28;20415;-91
2022/11/02 09:10:31;;;;;;;8.80;0.73;;;16.90;99.90;;;;;;5032703;28;20401;-85
2022/11/02 09:13:01;;;;;;;3.20;1.90;;;16.10;1.00;;;;;;5032686;28;20816;-82
2022/11/02 09:15:27;;;;;;;2.73;0.20;;;15.40;48.30;;;;;;5032512;28;20925;-88
2022/11/02 09:17:54;;;;;;;7.70;0.30;;;14.80;99.90;;;;;;5032133;28;20780;-80
2022/11/02 09:20:20;;;;;;;1.90;0.53;;;14.50;1.00;;;;;;5035526;28;20461;-84
2022/11/02 09:22:46;;;;;;;3.27;0.40;;;14.20;1.00;;;;;;5036717;28;20557;-86
2022/11/02 09:25:13;;;;;;;2.00;0.53;;;14.00;1.00;;;;;;5036294;28;20440;-90
2022/11/02 09:27:40;;;;;;;5.00;0.60;;;13.70;1.00;;;;;;5036164;28;20240;-89
2022/11/02 09:30:10;;;;;;;6.33;0.53;;;13.60;99.90;;;;;;5036247;28;20418;-87
2022/11/02 09:32:35;;;;;;;2.00;0.30;;;13.80;1.00;;;;;;5035452;28;20415;-82
2022/11/02 09:35:04;;;;;;;1.53;0.20;;;13.90;99.90;;;;;;5035779;28;20429;-83
2022/11/02 09:37:30;;;;;;;5.63;0.40;;;13.90;1.00;;;;;;5035872;28;20169;-88
2022/11/02 09:39:56;;;;;;;1.73;0.43;;;13.90;96.60;;;;;;5035568;28;20773;-82
2022/11/02 09:42:30;;;;;;;3.87;0.47;;;14.00;1.00;;;;;;5035574;28;20205;-82
2022/11/02 09:44:57;;;;;;;2.40;0.33;;;13.90;1.00;;;;;;5035640;28;20521;-82
2022/11/02 09:47:25;;;;;;;2.63;0.20;;;14.60;1.00;;;;;;5035278;28;20427;-82
2022/11/02 09:49:53;;;;;;;1.87;0.37;;;15.60;99.90;;;;;;5032497;28;20971;-84
2022/11/02 09:52:26;;;;;;;3.30;0.40;;;15.60;1.00;;;;;;5054720;28;20436;-83
2022/11/02 09:54:54;;;;;;;2.33;0.50;;;15.20;1.00;;;;;;5055352;28;20849;-83
2022/11/02 09:57:27;;;;;;;3.40;0.40;;;15.00;99.90;;;;;;5055385;28;20900;-84
2022/11/02 09:59:55;;;;;;;5.50;0.80;;;14.60;99.90;;;;;;5055537;28;20445;-88
2022/11/02 10:02:51;;;;;;;3.40;0.70;;;14.40;1.00;;;;;;5054771;28;20465;-84
2022/11/02 10:05:41;;;;;;;3.07;0.20;;;14.40;99.90;;;;;;5055839;28;20946;-84
2022/11/02 10:08:28;;;;;;;2.00;0.20;;;14.10;99.90;;;;;;5055736;28;20424;-84
2022/11/02 10:11:00;;;;;;;4.27;0.30;;;13.90;99.90;;;;;;5055810;28;20426;-83
2022/11/02 10:13:55;;;;;;;2.77;0.40;;;13.80;1.00;;;;;;5055823;28;20906;-86
2022/11/02 10:16:29;;;;;;;5.40;0.50;;;13.70;1.00;;;;;;5053845;28;20416;-93
2022/11/02 10:18:55;;;;;;;4.13;0.97;;;13.90;1.00;;;;;;5055851;28;20418;-93
2022/11/02 10:21:25;;;;;;;3.27;0.60;;;13.80;1.00;;;;;;5055451;28;21037;-87
2022/11/02 10:23:56;;;;;;;4.67;0.30;;;13.70;99.90;;;;;;5055470;28;20251;-90
2022/11/02 10:26:26;;;;;;;3.60;0.23;;;13.50;1.00;;;;;;5055144;28;20755;-83
2022/11/02 10:28:58;;;;;;;5.17;0.43;;;13.10;1.00;;;;;;5055599;28;20478;-82
2022/11/02 10:31:31;;;;;;;2.07;0.77;;;12.60;99.90;;;;;;5054788;28;20440;-81
2022/11/02 10:34:09;;;;;;;8.60;0.53;;;12.30;99.90;;;;;;5054777;28;20473;-82
2022/11/02 10:36:48;;;;;;;4.07;0.70;;;12.20;99.90;;;;;;5054473;28;20411;-82
2022/11/02 10:39:29;;;;;;;2.97;2.20;;;12.20;99.90;;;;;;5054554;28;20407;-82
2022/11/02 10:42:19;;;;;;;8.13;0.63;;;12.20;99.90;;;;;;5054695;28;20896;-82
2022/11/02 10:45:07;;;;;;;5.03;0.40;;;12.30;99.90;;;;;;5054612;28;20920;-90
2022/11/02 10:48:00;;;;;;;4.03;0.40;;;12.10;99.90;;;;;;5054332;28;20518;-82
2022/11/02 10:50:53;;;;;;;3.87;0.60;;;12.00;99.90;;;;;;5026396;28;20424;-82
2022/11/02 10:53:20;;;;;;;3.33;0.47;;;12.20;99.90;;;;;;5055204;28;20414;-82
2022/11/02 10:55:55;;;;;;;4.97;0.40;;;12.30;99.90;;;;;;5054655;28;20427;-88
2022/11/02 10:58:22;;;;;;;5.20;0.40;;;12.30;99.90;;;;;;5054864;28;20423;-82
2022/11/02 11:00:48;;;;;;;3.17;0.40;;;14.90;99.90;;;;;;5053653;28;20513;-82
2022/11/02 11:03:15;;;;;;;2.70;0.20;;;15.90;1.00;;;;;;5053097;28;20512;-83
2022/11/02 11:05:50;;;;;;;4.57;0.30;;;15.10;1.00;;;;;;5053957;28;20889;-81
2022/11/02 11:08:48;;;;;;;3.90;0.47;;;14.50;99.90;;;;;;5053940;28;20481;-82
2022/11/02 11:11:14;;;;;;;1.97;0.33;;;14.80;1.00;;;;;;5041880;28;20455;-87
2022/11/02 11:13:41;;;;;;;3.23;0.50;;;15.10;1.00;;;;;;5053805;28;20949;-82
2022/11/02 11:16:08;;;;;;;1.90;0.30;;;14.90;99.90;;;;;;5053219;28;20258;-80
2022/11/02 11:18:35;;;;;;;2.33;0.43;;;14.80;99.90;;;;;;5053506;28;20446;-84
2022/11/02 11:21:01;;;;;;;4.50;0.60;;;15.90;1.00;;;;;;5053533;28;20469;-85
2022/11/02 11:23:27;;;;;;;3.40;0.37;;;15.70;99.90;;;;;;5053440;28;20413;-81
2022/11/02 11:25:57;;;;;;;0.90;0.20;;;14.90;99.90;;;;;;5053462;28;20914;-91
2022/11/02 11:28:39;;;;;;;4.93;0.50;;;14.30;99.90;;;;;;5052785;28;20292;-85
2022/11/02 11:31:08;;;;;;;2.30;0.30;;;13.80;1.00;;;;;;5031703;28;20458;-86
2022/11/02 11:33:42;;;;;;;4.20;0.63;;;13.70;1.00;;;;;;5032418;28;20802;-87
2022/11/02 11:36:10;;;;;;;4.20;0.70;;;13.80;1.00;;;;;;5032391;28;21118;-87
2022/11/02 11:39:01;;;;;;;2.00;0.37;;;14.40;96.70;;;;;;5032482;28;20423;-90
2022/11/02 11:41:28;;;;;;;1.97;0.30;;;14.20;99.90;;;;;;5031670;28;20983;-87
2022/11/02 11:43:54;;;;;;;4.00;0.37;;;13.90;99.90;;;;;;5032344;28;20470;-87
2022/11/02 11:46:20;;;;;;;2.30;0.20;;;13.90;1.00;;;;;;5030756;28;20523;-90
2022/11/02 11:48:50;;;;;;;3.60;0.50;;;14.10;1.00;;;;;;5032499;28;20175;-89
2022/11/02 11:51:33;;;;;;;5.17;0.37;;;14.20;1.00;;;;;;5032175;28;20581;-88
2022/11/02 11:54:25;;;;;;;3.70;0.30;;;14.20;99.90;;;;;;5031847;28;20417;-87
2022/11/02 11:56:54;;;;;;;5.20;0.40;;;14.10;99.90;;;;;;5028022;28;20847;-88
2022/11/02 11:59:22;;;;;;;0.70;0.20;;;13.90;99.90;;;;;;5022966;28;20466;-86
2022/11/02 12:01:48;;;;;;;1.13;0.20;;;13.80;99.90;;;;;;5024106;28;20480;-90
2022/11/02 12:04:32;;;;;;;4.53;0.50;;;13.60;99.90;;;;;;5043563;28;20505;-88
2022/11/02 12:07:22;;;;;;;6.70;0.50;;;13.60;1.00;;;;;;5038157;28;20497;-89
2022/11/02 12:10:10;;;;;;;2.40;1.03;;;13.30;1.00;;;;;;5038573;28;20509;-87
2022/11/02 12:12:50;;;;;;;1.80;0.33;;;13.10;55.20;;;;;;5032866;28;20415;-88
2022/11/02 12:15:42;;;;;;;0.97;0.50;;;12.90;99.90;;;;;;5030936;28;20468;-86
2022/11/02 12:18:27;;;;;;;10.50;0.83;;;12.80;99.90;;;;;;5032342;28;20413;-88
2022/11/02 12:21:07;;;;;;;1.70;0.20;;;12.90;99.90;;;;;;5032102;28;20969;-87
2022/11/02 12:23:49;;;;;;;2.53;0.50;;;13.10;99.90;;;;;;5032166;28;20432;-86
2022/11/02 12:26:30;;;;;;;2.00;0.30;;;13.00;99.90;;;;;;5011700;28;21012;-87
2022/11/02 12:29:10;;;;;;;5.17;0.43;;;13.00;99.90;;;;;;5011747;28;20412;-88
2022/11/02 12:31:39;;;;;;;4.43;0.20;;;12.80;99.90;;;;;;5018472;28;20434;-88
2022/11/02 12:34:40;;;;;;;4.90;0.70;;;12.10;99.90;;;;;;5031475;28;20493;-90
2022/11/02 12:37:44;;;;;;;3.00;0.77;;;11.60;99.90;;;;;;5032097;28;20417;-90
2022/11/02 12:40:48;;;;;;;1.13;0.30;;;11.50;99.90;;;;;;5031077;28;20413;-88
2022/11/02 12:43:37;;;;;;;2.00;0.30;;;11.60;99.90;;;;;;4989293;28;20446;-86
2022/11/02 12:46:27;;;;;;;1.03;0.30;;;11.60;99.90;;;;;;4990320;28;20873;-87
2022/11/02 12:49:32;;;;;;;2.77;0.20;;;11.80;99.90;;;;;;5023149;28;20835;-88
2022/11/02 12:52:29;;;;;;;4.60;0.60;;;11.80;99.90;;;;;;5031543;28;20922;-86
2022/11/02 12:55:00;;;;;;;2.50;0.30;;;11.90;99.90;;;;;;5036267;28;20930;-93
2022/11/02 12:57:31;;;;;;;3.20;0.70;;;12.10;99.90;;;;;;5036257;28;20500;-88
2022/11/02 13:00:03;;;;;;;1.30;0.20;;;12.30;99.90;;;;;;5035532;28;20436;-87
2022/11/02 13:02:43;;;;;;;6.37;0.40;;;12.40;99.90;;;;;;5033944;28;20961;-89
2022/11/02 13:05:16;;;;;;;2.60;0.23;;;12.60;99.90;;;;;;5035421;28;20928;-87
2022/11/02 13:07:54;;;;;;;1.37;0.20;;;12.60;99.90;;;;;;5035565;28;20416;-87
2022/11/02 13:10:23;;;;;;;1.63;0.20;;;12.70;99.90;;;;;;5034148;28;20416;-87
2022/11/02 13:12:54;;;;;;;2.93;1.30;;;12.90;99.90;;;;;;5035072;28;20424;-87
2022/11/02 13:15:22;;;;;;;5.00;0.63;;;13.00;99.90;;;;;;5035059;28;20423;-87
2022/11/02 13:17:58;;;;;;;7.63;0.40;;;13.20;99.90;;;;;;5034510;28;20896;-86
2022/11/02 13:20:34;;;;;;;2.83;0.37;;;13.30;99.90;;;;;;5035333;28;20460;-88
2022/11/02 13:23:29;;;;;;;2.70;0.50;;;13.50;1.00;;;;;;5035145;28;20426;-88
2022/11/02 13:25:58;;;;;;;10.23;1.03;;;13.60;1.00;;;;;;5034727;28;20408;-87